Time;durP1;ratioP1;P1;durP2;ratioP2;P2;SDS_P1;SDS_P2;PMS_P1;PMS_P2;Temp;Humidity;BMP_temperature;BMP_pressure;BME280_temperature;BME280_humidity;BME280_pressure;Samples;Min_cycle;Max_cycle;Signal;HPM_P1;HPM_P2
2021/12/05 00:21:42;;;;;;;20.37;5.57;;;4.90;99.90;;;;;;5056775;28;20064;-77
2021/12/05 00:24:16;;;;;;;17.80;7.20;;;4.90;99.90;;;;;;5054512;28;20112;-76
2021/12/05 00:26:48;;;;;;;18.57;7.33;;;4.90;99.90;;;;;;5038036;28;20077;-76
2021/12/05 01:16:33;;;;;;;19.83;3.70;;;4.50;99.90;;;;;;5049446;28;20033;-78
2021/12/05 01:18:59;;;;;;;24.27;4.17;;;4.50;99.90;;;;;;5033874;28;20049;-77
2021/12/05 01:21:26;;;;;;;16.73;4.30;;;4.50;99.90;;;;;;5038484;28;20131;-77
2021/12/05 01:24:09;;;;;;;15.37;4.70;;;4.50;99.90;;;;;;5046316;28;20029;-77
2021/12/05 01:26:46;;;;;;;;;;;4.40;99.90;;;;;;5053767;28;20048;-77
2021/12/05 01:48:20;;;;;;;15.27;3.57;;;4.10;99.90;;;;;;5049458;28;20067;-77
2021/12/05 01:58:40;;;;;;;13.52;2.80;;;4.00;99.90;;;;;;5050123;28;20092;-78
2021/12/05 02:34:20;;;;;;;12.67;2.80;;;3.80;99.90;;;;;;5039723;28;20091;-78
2021/12/05 02:41:45;;;;;;;15.93;3.53;;;4.00;99.90;;;;;;5033268;28;20111;-77
2021/12/05 02:44:21;;;;;;;11.60;3.23;;;4.10;99.90;;;;;;5037574;28;20075;-77
2021/12/05 02:47:03;;;;;;;13.07;2.03;;;4.20;99.90;;;;;;5046142;28;20029;-78
2021/12/05 02:49:31;;;;;;;11.57;2.33;;;4.40;99.90;;;;;;5047762;28;20026;-75
2021/12/05 02:52:03;;;;;;;9.23;2.13;;;4.40;99.90;;;;;;5046890;28;20021;-76
2021/12/05 02:54:36;;;;;;;10.30;2.70;;;4.50;99.90;;;;;;5057926;28;20029;-76
2021/12/05 02:57:04;;;;;;;9.90;2.37;;;4.50;99.90;;;;;;5047718;28;20039;-76
2021/12/05 03:02:12;;;;;;;12.52;2.63;;;4.50;99.90;;;;;;5045911;28;20114;-79
2021/12/05 03:04:42;;;;;;;9.40;1.93;;;4.40;99.90;;;;;;5066948;28;20101;-77
2021/12/05 03:07:10;;;;;;;7.37;1.40;;;4.40;99.90;;;;;;5053265;28;20025;-77
2021/12/05 03:09:39;;;;;;;6.10;1.10;;;4.40;99.90;;;;;;5069563;28;20047;-77
2021/12/05 03:12:09;;;;;;;9.70;1.17;;;4.40;99.90;;;;;;5076285;28;20111;-77
2021/12/05 03:14:35;;;;;;;9.53;1.90;;;4.30;99.90;;;;;;5034019;28;20053;-77
2021/12/05 03:17:00;;;;;;;12.07;1.53;;;4.20;99.90;;;;;;5030871;28;20034;-77
2021/12/05 03:19:27;;;;;;;10.00;1.73;;;4.20;99.90;;;;;;5054974;28;20053;-76
2021/12/05 03:21:53;;;;;;;8.50;1.27;;;4.20;99.90;;;;;;5045016;28;20029;-78
2021/12/05 03:24:22;;;;;;;11.17;1.30;;;4.20;99.90;;;;;;5053551;28;20029;-76
2021/12/05 03:26:52;;;;;;;10.10;1.70;;;4.20;99.90;;;;;;5044879;28;20146;-81
2021/12/05 03:29:19;;;;;;;13.33;1.83;;;4.10;99.90;;;;;;5047930;28;20443;-77
2021/12/05 03:31:46;;;;;;;15.57;1.63;;;4.10;99.90;;;;;;5051897;28;20477;-77
2021/12/05 03:34:15;;;;;;;9.37;1.77;;;4.00;99.90;;;;;;5045690;28;20035;-77
2021/12/05 03:36:44;;;;;;;9.03;1.57;;;4.00;99.90;;;;;;5045483;28;20033;-77
2021/12/05 03:39:10;;;;;;;8.33;1.57;;;4.10;99.90;;;;;;5047374;28;20604;-77
2021/12/05 03:41:37;;;;;;;10.97;2.00;;;4.10;99.90;;;;;;5052365;28;20056;-76
2021/12/05 03:44:05;;;;;;;8.13;1.37;;;4.20;99.90;;;;;;5054832;28;20147;-77
2021/12/05 03:46:32;;;;;;;11.30;1.60;;;4.20;99.90;;;;;;5050625;28;20021;-77
2021/12/05 03:49:05;;;;;;;14.37;1.97;;;4.20;99.90;;;;;;5038350;28;20068;-76
2021/12/05 03:51:33;;;;;;;8.13;1.30;;;4.30;99.90;;;;;;5042000;28;20025;-77
2021/12/05 03:54:00;;;;;;;11.63;1.40;;;4.40;99.90;;;;;;5031455;28;20026;-76
2021/12/05 03:56:26;;;;;;;7.37;1.20;;;4.40;99.90;;;;;;5032741;28;20029;-81
2021/12/05 03:58:53;;;;;;;7.67;1.50;;;4.50;99.90;;;;;;5047159;28;20037;-79
2021/12/05 04:01:20;;;;;;;8.40;1.40;;;4.60;99.90;;;;;;5038742;28;20021;-76
2021/12/05 04:03:48;;;;;;;9.03;1.50;;;4.60;99.90;;;;;;5069940;28;20575;-77
2021/12/05 04:06:16;;;;;;;8.93;1.33;;;4.70;99.90;;;;;;5062183;28;20362;-77
2021/12/05 04:08:43;;;;;;;6.47;1.20;;;4.70;99.90;;;;;;5049325;28;20468;-76
2021/12/05 04:11:13;;;;;;;6.67;1.00;;;4.80;99.90;;;;;;5039788;28;20056;-77
2021/12/05 04:13:40;;;;;;;5.17;1.03;;;4.80;99.90;;;;;;5050779;28;20031;-77
2021/12/05 04:16:07;;;;;;;5.80;1.07;;;4.80;99.90;;;;;;5047474;28;20087;-77
2021/12/05 04:18:33;;;;;;;6.40;1.30;;;4.80;99.90;;;;;;5043202;28;20049;-77
2021/12/05 04:21:00;;;;;;;8.90;1.03;;;4.90;99.90;;;;;;5047042;28;20028;-77
2021/12/05 04:23:26;;;;;;;8.63;1.20;;;4.90;99.90;;;;;;5045095;28;20028;-76
2021/12/05 04:25:52;;;;;;;10.80;1.17;;;4.90;99.90;;;;;;5071609;28;20111;-82
2021/12/05 04:28:21;;;;;;;9.77;1.03;;;4.90;99.90;;;;;;5037038;28;20033;-77
2021/12/05 04:30:47;;;;;;;8.40;1.10;;;4.90;99.90;;;;;;5061709;28;20029;-77
2021/12/05 04:33:13;;;;;;;6.93;1.07;;;4.90;99.90;;;;;;5045118;28;20037;-77
2021/12/05 04:35:38;;;;;;;6.77;1.17;;;4.90;99.80;;;;;;5052304;28;20147;-77
2021/12/05 04:38:04;;;;;;;4.80;0.90;;;4.90;99.90;;;;;;5053776;28;20070;-77
2021/12/05 04:40:32;;;;;;;6.67;1.27;;;4.90;99.80;;;;;;5055610;28;20032;-77
2021/12/05 04:42:59;;;;;;;9.70;0.90;;;4.90;99.80;;;;;;5049673;28;20738;-78
2021/12/05 04:45:29;;;;;;;7.10;1.10;;;4.90;99.60;;;;;;5042444;28;20036;-78
2021/12/05 04:47:55;;;;;;;8.80;1.20;;;4.90;99.50;;;;;;5048991;28;20021;-84
2021/12/05 04:50:22;;;;;;;10.27;1.20;;;4.90;99.20;;;;;;5043198;28;20026;-77
2021/12/05 04:52:49;;;;;;;7.53;0.90;;;4.80;99.30;;;;;;5054311;28;20023;-78
2021/12/05 04:55:16;;;;;;;5.20;1.00;;;4.80;99.50;;;;;;5035849;28;20040;-80
2021/12/05 04:57:43;;;;;;;5.73;0.90;;;4.80;99.40;;;;;;5033933;28;20034;-78
2021/12/05 05:00:34;;;;;;;7.00;1.00;;;4.90;99.40;;;;;;5034724;28;20109;-78
2021/12/05 05:03:00;;;;;;;4.83;1.13;;;4.80;99.30;;;;;;5035927;28;20029;-77
2021/12/05 05:05:28;;;;;;;4.43;1.00;;;4.80;99.20;;;;;;5039331;28;20483;-77
2021/12/05 05:07:54;;;;;;;7.73;0.80;;;4.80;99.30;;;;;;5054174;28;20021;-76
2021/12/05 05:10:26;;;;;;;6.80;0.80;;;4.80;99.30;;;;;;5062097;28;20029;-77
2021/12/05 05:12:53;;;;;;;5.80;0.85;;;4.80;99.40;;;;;;5047525;28;20500;-76
2021/12/05 05:15:22;;;;;;;6.73;0.80;;;4.80;99.40;;;;;;5053659;28;20039;-77
2021/12/05 05:17:50;;;;;;;5.57;0.73;;;4.90;99.40;;;;;;5053467;28;20025;-77
2021/12/05 05:42:42;;;;;;;8.90;1.10;;;5.10;99.20;;;;;;5033763;28;20087;-76
2021/12/05 05:50:13;;;;;;;5.80;0.60;;;5.00;99.20;;;;;;5052398;28;20025;-77
2021/12/05 05:52:39;;;;;;;5.73;0.60;;;5.10;99.30;;;;;;5049340;28;20033;-79
2021/12/05 05:55:06;;;;;;;4.07;0.50;;;5.00;99.30;;;;;;5016811;28;20029;-77
2021/12/05 05:58:16;;;;;;;4.03;0.70;;;5.00;99.40;;;;;;5031795;28;20067;-77
2021/12/05 06:00:39;;;;;;;4.40;0.73;;;5.00;99.20;;;;;;5032670;28;20037;-78
2021/12/05 06:03:24;;;;;;;6.53;0.70;;;5.00;99.30;;;;;;5038541;28;20091;-78
2021/12/05 06:05:51;;;;;;;4.83;0.60;;;5.10;99.40;;;;;;5031672;28;20376;-79
2021/12/05 06:08:22;;;;;;;4.23;0.60;;;5.10;99.30;;;;;;5041038;28;20534;-76
2021/12/05 06:10:47;;;;;;;6.10;0.70;;;5.10;99.30;;;;;;5050586;28;20033;-77
2021/12/05 06:13:15;;;;;;;7.47;0.80;;;5.20;99.10;;;;;;5051285;28;20039;-76
2021/12/05 06:15:41;;;;;;;5.33;0.60;;;5.20;98.80;;;;;;5044114;28;20028;-77
2021/12/05 06:18:07;;;;;;;3.27;0.50;;;5.20;99.10;;;;;;5060271;28;20567;-78
2021/12/05 06:20:33;;;;;;;5.00;0.50;;;5.20;98.80;;;;;;5024250;28;20037;-78
2021/12/05 06:22:59;;;;;;;4.17;0.60;;;5.20;98.80;;;;;;5051425;28;20112;-77
2021/12/05 06:25:27;;;;;;;5.73;0.43;;;5.20;99.00;;;;;;5052955;28;20033;-77
2021/12/05 06:27:58;;;;;;;5.33;0.50;;;5.20;99.00;;;;;;5046642;28;20040;-77
2021/12/05 06:46:15;;;;;;;5.77;0.60;;;5.20;99.30;;;;;;5052232;28;20047;-77
2021/12/05 06:48:42;;;;;;;5.33;0.63;;;5.20;99.30;;;;;;5047915;28;20086;-77
2021/12/05 06:51:09;;;;;;;4.20;0.80;;;5.20;99.40;;;;;;5050408;28;20057;-78
2021/12/05 06:53:35;;;;;;;4.97;0.80;;;5.10;99.50;;;;;;5035707;28;20078;-76
2021/12/05 06:56:01;;;;;;;4.33;0.60;;;5.10;99.60;;;;;;5051268;28;20025;-78
2021/12/05 06:58:26;;;;;;;5.87;0.60;;;5.10;99.80;;;;;;5048188;28;20044;-77
2021/12/05 07:00:52;;;;;;;4.67;0.60;;;5.10;99.90;;;;;;5032402;28;20083;-76
2021/12/05 07:03:18;;;;;;;4.80;0.63;;;5.10;99.90;;;;;;5041853;28;20032;-78
2021/12/05 07:05:51;;;;;;;5.10;0.60;;;5.10;99.90;;;;;;5034229;28;20034;-77
2021/12/05 07:08:18;;;;;;;4.77;0.90;;;5.10;99.90;;;;;;5015637;28;20077;-77
2021/12/05 07:16:59;;;;;;;4.37;0.60;;;5.10;99.90;;;;;;5040150;28;20102;-78
2021/12/05 07:27:06;;;;;;;3.80;1.03;;;5.10;99.90;;;;;;5060897;28;20048;-77
2021/12/05 07:40:33;;;;;;;6.93;1.73;;;5.30;99.90;;;;;;5043860;28;20068;-76
2021/12/05 07:43:03;;;;;;;7.37;3.30;;;5.40;99.90;;;;;;5031790;28;20465;-76
2021/12/05 07:45:37;;;;;;;7.70;4.07;;;5.40;99.90;;;;;;5048217;28;20574;-77
2021/12/05 07:48:14;;;;;;;3.03;1.50;;;5.40;99.90;;;;;;5053466;28;20483;-78
2021/12/05 07:50:52;;;;;;;11.77;6.37;;;5.50;99.90;;;;;;5051460;28;20052;-77
2021/12/05 07:53:25;;;;;;;6.57;2.97;;;5.50;99.90;;;;;;5045222;28;20017;-77
2021/12/05 07:55:54;;;;;;;6.45;3.70;;;5.50;99.90;;;;;;5045523;28;20128;-77
2021/12/05 08:14:46;;;;;;;11.40;5.10;;;5.70;99.90;;;;;;5041090;28;20029;-76
2021/12/05 08:17:17;;;;;;;8.73;3.67;;;5.70;99.90;;;;;;5034338;28;20030;-76
2021/12/05 08:19:43;;;;;;;4.77;2.13;;;5.60;99.90;;;;;;5039875;28;20106;-76
2021/12/05 08:22:09;;;;;;;7.43;2.80;;;5.60;99.80;;;;;;5055346;28;20029;-76
2021/12/05 08:24:38;;;;;;;14.70;7.27;;;5.60;99.70;;;;;;5050231;28;20025;-77
2021/12/05 08:27:06;;;;;;;14.40;5.43;;;5.60;99.90;;;;;;5040427;28;20017;-76
2021/12/05 08:29:41;;;;;;;11.03;4.57;;;5.60;99.90;;;;;;5054013;28;20044;-76
2021/12/05 08:32:20;;;;;;;11.80;4.43;;;5.60;99.80;;;;;;5041400;28;20543;-77
2021/12/05 08:34:59;;;;;;;7.53;4.43;;;5.70;99.80;;;;;;5020665;28;20251;-76
2021/12/05 10:12:06;;;;;;;13.00;7.50;;;7.00;98.00;;;;;;5055052;28;20036;-77
2021/12/05 10:17:56;;;;;;;14.50;7.63;;;6.90;98.20;;;;;;5050280;28;20499;-79
2021/12/05 10:20:25;;;;;;;8.87;5.77;;;6.90;98.30;;;;;;5039489;28;20369;-76
2021/12/05 10:34:50;;;;;;;4.87;3.00;;;6.40;97.60;;;;;;5049617;28;20102;-75
2021/12/05 10:37:20;;;;;;;7.57;5.17;;;6.30;97.40;;;;;;5043567;28;20033;-76
2021/12/05 10:39:47;;;;;;;9.07;5.67;;;6.20;97.80;;;;;;5048832;28;20093;-77
2021/12/05 10:42:42;;;;;;;7.70;5.07;;;6.10;97.80;;;;;;5026390;28;20083;-77
2021/12/05 10:45:32;;;;;;;3.13;2.23;;;6.20;98.40;;;;;;5040417;28;21885;-77
2021/12/05 10:48:03;;;;;;;2.23;1.13;;;6.20;98.20;;;;;;5044245;28;20460;-77
2021/12/05 10:50:40;;;;;;;4.30;1.30;;;6.20;98.00;;;;;;5051448;28;20025;-77
2021/12/05 10:53:36;;;;;;;2.30;1.70;;;6.20;98.20;;;;;;5039342;28;20438;-78
2021/12/05 10:56:11;;;;;;;5.60;2.50;;;6.20;98.20;;;;;;5032231;28;20041;-78
2021/12/05 10:58:56;;;;;;;8.67;4.77;;;6.10;98.40;;;;;;5031766;28;20410;-77
2021/12/05 11:01:29;;;;;;;3.40;2.27;;;6.20;98.70;;;;;;5034361;28;20060;-78
2021/12/05 11:04:13;;;;;;;7.85;5.00;;;6.20;98.70;;;;;;5034708;28;20519;-78
2021/12/05 11:06:53;;;;;;;9.27;5.27;;;6.20;98.70;;;;;;5040556;28;20018;-83
2021/12/05 11:09:34;;;;;;;7.03;4.80;;;6.20;98.90;;;;;;5052259;28;20470;-77
2021/12/05 11:12:08;;;;;;;7.53;2.97;;;6.30;99.00;;;;;;5037931;28;20097;-77
2021/12/05 11:14:40;;;;;;;5.33;3.13;;;6.30;98.90;;;;;;5050744;28;20428;-81
2021/12/05 11:17:15;;;;;;;5.00;2.77;;;6.30;98.90;;;;;;5051963;28;20021;-76
2021/12/05 11:19:49;;;;;;;8.40;5.27;;;6.20;98.80;;;;;;5047741;28;20121;-78
2021/12/05 11:22:22;;;;;;;10.50;6.67;;;6.30;99.10;;;;;;5043080;28;20314;-78
2021/12/05 11:24:47;;;;;;;;;;;6.40;99.30;;;;;;5054011;28;20107;-76
2021/12/05 11:27:22;;;;;;;11.13;7.13;;;6.50;99.20;;;;;;5051735;28;19944;-78
2021/12/05 11:30:13;;;;;;;4.53;2.27;;;6.60;99.10;;;;;;5045285;28;20029;-76
2021/12/05 11:33:01;;;;;;;9.53;5.50;;;6.60;98.70;;;;;;5049481;28;20120;-77
2021/12/05 11:35:38;;;;;;;3.77;1.70;;;6.50;98.70;;;;;;5047613;28;20032;-77
2021/12/05 11:38:19;;;;;;;4.30;3.00;;;6.50;98.40;;;;;;5050311;28;20081;-81
2021/12/05 11:40:51;;;;;;;7.60;4.53;;;6.40;98.40;;;;;;5054192;28;20021;-77
2021/12/05 11:43:19;;;;;;;9.38;5.68;;;6.30;98.10;;;;;;5050511;28;20473;-78
2021/12/05 11:46:11;;;;;;;6.67;4.23;;;6.40;98.50;;;;;;5053000;28;20476;-77
2021/12/05 11:48:53;;;;;;;5.17;3.20;;;6.40;98.80;;;;;;5047116;28;20106;-81
2021/12/05 11:51:31;;;;;;;6.95;4.10;;;6.50;98.50;;;;;;5046192;28;20064;-80
2021/12/05 11:54:22;;;;;;;13.73;8.23;;;6.50;98.30;;;;;;5042708;28;20029;-77
2021/12/05 11:57:11;;;;;;;5.70;2.27;;;6.60;98.80;;;;;;5031128;28;20033;-76
2021/12/05 11:59:44;;;;;;;8.97;2.97;;;6.80;98.50;;;;;;5046056;28;20052;-76
2021/12/05 12:02:24;;;;;;;6.73;3.93;;;6.80;98.00;;;;;;5049294;28;20108;-77
2021/12/05 12:04:53;;;;;;;3.93;1.60;;;6.80;97.60;;;;;;5050167;28;20025;-76
2021/12/05 12:07:21;;;;;;;3.43;1.03;;;6.80;97.20;;;;;;5043575;28;20036;-77
2021/12/05 12:09:50;;;;;;;7.60;5.00;;;6.80;96.50;;;;;;5040489;28;20041;-77
2021/12/05 12:12:17;;;;;;;8.03;4.53;;;6.60;97.10;;;;;;5051812;28;20461;-78
2021/12/05 12:14:43;;;;;;;7.43;4.43;;;6.70;97.60;;;;;;5035526;28;20088;-78
2021/12/05 12:17:16;;;;;;;6.00;2.17;;;6.80;97.90;;;;;;5033898;28;20108;-77
2021/12/05 12:19:43;;;;;;;3.50;1.80;;;6.90;97.70;;;;;;5046302;28;20090;-82
2021/12/05 12:22:10;;;;;;;2.50;1.10;;;6.90;97.50;;;;;;5064811;28;20030;-76
2021/12/05 12:24:37;;;;;;;2.00;1.00;;;6.80;96.50;;;;;;5033127;28;20466;-79
2021/12/05 12:27:04;;;;;;;4.93;2.27;;;6.80;96.70;;;;;;5033016;28;20072;-78
2021/12/05 12:29:30;;;;;;;4.57;2.73;;;6.70;96.90;;;;;;5031905;28;20029;-77
2021/12/05 12:32:11;;;;;;;3.33;2.03;;;6.70;97.00;;;;;;5047240;28;20476;-77
2021/12/05 12:34:38;;;;;;;4.13;2.10;;;6.70;97.00;;;;;;5032394;28;20026;-77
2021/12/05 12:37:06;;;;;;;3.57;1.67;;;6.60;96.60;;;;;;5031255;28;20031;-77
2021/12/05 12:39:44;;;;;;;5.07;2.80;;;6.50;96.90;;;;;;5051586;28;20056;-77
2021/12/05 12:42:21;;;;;;;7.27;4.77;;;6.50;97.30;;;;;;5064188;28;20029;-77
2021/12/05 12:45:09;;;;;;;5.50;2.00;;;6.50;97.70;;;;;;5035685;28;20033;-77
2021/12/05 12:47:58;;;;;;;3.50;2.53;;;6.50;97.50;;;;;;5034852;28;20029;-77
2021/12/05 12:50:51;;;;;;;6.50;3.50;;;6.50;97.50;;;;;;5060109;28;20115;-76
2021/12/05 12:53:27;;;;;;;3.22;2.17;;;6.40;97.70;;;;;;5070157;28;20444;-77
2021/12/05 12:56:11;;;;;;;4.40;2.10;;;6.40;97.50;;;;;;5038224;28;20030;-77
2021/12/05 12:58:48;;;;;;;6.10;4.17;;;6.40;97.60;;;;;;5072784;28;20083;-78
2021/12/05 13:02:26;;;;;;;4.20;2.70;;;6.40;97.90;;;;;;5055604;28;20025;-78
2021/12/05 13:10:34;;;;;;;4.93;3.80;;;6.50;97.90;;;;;;5058053;28;20100;-76
2021/12/05 13:13:02;;;;;;;4.60;2.70;;;6.60;98.00;;;;;;5049609;28;20025;-76
2021/12/05 13:15:39;;;;;;;5.47;3.10;;;6.60;97.70;;;;;;5056954;28;20104;-75
2021/12/05 13:18:23;;;;;;;3.70;2.83;;;6.60;97.50;;;;;;5051072;28;20060;-75
2021/12/05 13:20:56;;;;;;;5.47;3.70;;;6.60;97.60;;;;;;5037791;28;20076;-81
2021/12/05 13:23:46;;;;;;;6.37;3.93;;;6.50;97.50;;;;;;5039441;28;20029;-75
2021/12/05 13:26:39;;;;;;;5.07;3.77;;;6.50;97.50;;;;;;5050501;28;20017;-77
2021/12/05 13:29:23;;;;;;;6.57;4.90;;;6.50;97.40;;;;;;5056146;28;20033;-77
2021/12/05 13:31:53;;;;;;;4.57;3.50;;;6.40;97.30;;;;;;5052037;28;20024;-84
2021/12/05 13:34:27;;;;;;;5.80;3.73;;;6.40;97.50;;;;;;5042043;28;20081;-77
2021/12/05 13:37:13;;;;;;;10.73;6.13;;;6.30;97.60;;;;;;5045793;28;20667;-77
2021/12/05 13:40:04;;;;;;;10.63;4.33;;;6.40;97.90;;;;;;5055962;28;20037;-78
2021/12/05 13:42:42;;;;;;;6.17;4.50;;;6.40;98.00;;;;;;5053888;28;20043;-78
2021/12/05 13:45:34;;;;;;;4.87;3.67;;;6.40;98.00;;;;;;5050992;28;20048;-79
2021/12/05 13:48:00;;;;;;;5.22;3.92;;;6.40;97.80;;;;;;5052459;28;20057;-78
2021/12/05 13:50:33;;;;;;;8.27;5.87;;;6.20;97.60;;;;;;5053352;28;20097;-79
2021/12/05 13:53:21;;;;;;;6.40;5.00;;;6.20;97.80;;;;;;5046716;28;20068;-79
2021/12/05 13:56:02;;;;;;;6.07;4.70;;;6.20;98.10;;;;;;5044978;28;20365;-78
2021/12/05 13:58:30;;;;;;;8.47;5.30;;;6.20;98.10;;;;;;5044877;28;20116;-79
2021/12/05 14:01:04;;;;;;;8.50;6.53;;;6.10;98.10;;;;;;5052456;28;20028;-79
2021/12/05 14:03:48;;;;;;;11.10;6.87;;;6.20;98.40;;;;;;5048899;28;20032;-80
2021/12/05 14:06:37;;;;;;;8.40;6.37;;;6.20;98.20;;;;;;5046324;28;20061;-78
2021/12/05 14:09:23;;;;;;;8.27;6.60;;;6.30;98.30;;;;;;5049335;28;20029;-78
2021/12/05 14:11:55;;;;;;;10.80;6.53;;;6.30;98.40;;;;;;5052410;28;20025;-79
2021/12/05 14:14:25;;;;;;;11.37;7.60;;;6.30;98.20;;;;;;5047233;28;20029;-79
2021/12/05 14:16:53;;;;;;;9.30;6.43;;;6.30;98.30;;;;;;5032195;28;20072;-81
2021/12/05 14:19:22;;;;;;;11.33;7.30;;;6.50;98.30;;;;;;5034992;28;21048;-79
2021/12/05 14:21:50;;;;;;;11.70;6.40;;;6.40;98.20;;;;;;5036171;28;20033;-78
2021/12/05 14:24:18;;;;;;;9.53;7.73;;;6.50;98.20;;;;;;5034277;28;20040;-79
2021/12/05 14:26:48;;;;;;;10.43;6.77;;;6.50;98.20;;;;;;5040994;28;20024;-78
2021/12/05 14:29:17;;;;;;;6.13;4.50;;;6.50;98.10;;;;;;5040954;28;20025;-77
2021/12/05 14:31:50;;;;;;;10.63;8.17;;;6.40;97.80;;;;;;5037962;28;20025;-78
2021/12/05 14:34:16;;;;;;;;;;;6.40;97.90;;;;;;5077270;28;20237;-77
2021/12/05 14:36:55;;;;;;;17.00;11.63;;;6.50;98.10;;;;;;5043916;28;19912;-77
2021/12/05 14:39:23;;;;;;;10.60;8.43;;;6.50;98.30;;;;;;5052261;28;20124;-77
2021/12/05 14:41:52;;;;;;;9.03;5.90;;;6.50;98.30;;;;;;5054564;28;20029;-80
2021/12/05 14:44:19;;;;;;;5.57;3.80;;;6.50;98.10;;;;;;5035364;28;20029;-79
2021/12/05 14:46:55;;;;;;;8.27;5.63;;;6.40;98.00;;;;;;5029200;28;20037;-79
2021/12/05 14:49:28;;;;;;;11.83;7.23;;;6.30;98.20;;;;;;5053140;28;20040;-79
2021/12/05 14:51:55;;;;;;;11.50;5.95;;;6.20;98.40;;;;;;5040893;28;20026;-79
2021/12/05 14:54:29;;;;;;;7.77;4.27;;;6.20;98.60;;;;;;5032436;28;20033;-77
2021/12/05 14:56:56;;;;;;;4.50;2.93;;;6.20;98.70;;;;;;5037316;28;20021;-79
2021/12/05 14:59:21;;;;;;;5.90;3.70;;;6.20;98.50;;;;;;5051935;28;20037;-77
2021/12/05 15:01:53;;;;;;;8.33;4.50;;;6.10;98.70;;;;;;5032800;28;20029;-78
2021/12/05 15:04:21;;;;;;;6.20;3.33;;;6.10;98.90;;;;;;5035919;28;20082;-79
2021/12/05 15:06:47;;;;;;;11.03;5.93;;;6.00;98.90;;;;;;5037812;28;20047;-78
2021/12/05 15:09:39;;;;;;;11.23;7.37;;;6.00;99.10;;;;;;5036505;28;20465;-77
2021/12/05 15:12:14;;;;;;;10.00;7.43;;;6.10;99.30;;;;;;5049857;28;20029;-80
2021/12/05 15:14:43;;;;;;;6.97;4.37;;;6.20;99.40;;;;;;5037320;28;20033;-79
2021/12/05 15:17:16;;;;;;;12.10;7.97;;;6.20;99.30;;;;;;5038198;28;20021;-78
2021/12/05 15:19:46;;;;;;;8.03;5.63;;;6.10;99.30;;;;;;5052080;28;20140;-78
2021/12/05 15:22:14;;;;;;;18.33;11.60;;;6.10;99.30;;;;;;5044201;28;20477;-78
2021/12/05 15:24:47;;;;;;;9.87;5.70;;;6.10;99.50;;;;;;5049839;28;20116;-78
2021/12/05 15:27:16;;;;;;;24.70;16.30;;;6.00;99.40;;;;;;5052027;28;20021;-79
2021/12/05 15:29:47;;;;;;;31.60;19.43;;;5.90;99.60;;;;;;5053894;28;20028;-78
2021/12/05 15:32:23;;;;;;;12.63;8.43;;;5.90;99.90;;;;;;5059939;28;20048;-80
2021/12/05 15:34:55;;;;;;;18.63;11.23;;;5.90;99.90;;;;;;5034475;28;20034;-79
2021/12/05 15:37:22;;;;;;;14.80;10.90;;;5.90;99.90;;;;;;5033695;28;20087;-79
2021/12/05 15:39:50;;;;;;;22.83;14.40;;;5.80;99.90;;;;;;5032704;28;20030;-78
2021/12/05 15:42:21;;;;;;;21.70;14.33;;;5.90;99.90;;;;;;5032478;28;20032;-78
2021/12/05 15:44:50;;;;;;;14.13;8.57;;;5.90;99.90;;;;;;5044306;28;20112;-79
2021/12/05 15:47:19;;;;;;;8.83;6.70;;;6.00;99.90;;;;;;5058931;28;20017;-80
2021/12/05 15:49:45;;;;;;;10.60;8.07;;;5.90;99.90;;;;;;5038713;28;20021;-79
2021/12/05 15:52:10;;;;;;;12.80;9.00;;;5.90;99.90;;;;;;5037444;28;20032;-81
2021/12/05 15:54:38;;;;;;;10.33;7.30;;;5.80;99.90;;;;;;5052112;28;20468;-79
2021/12/05 15:57:32;;;;;;;13.80;9.43;;;5.80;99.90;;;;;;5068133;28;20021;-83
2021/12/05 16:00:01;;;;;;;22.63;16.30;;;5.80;99.90;;;;;;5063783;28;20124;-83
2021/12/05 16:02:27;;;;;;;17.90;12.03;;;5.90;99.90;;;;;;5067344;28;20087;-82
2021/12/05 16:04:53;;;;;;;46.33;24.17;;;6.00;99.90;;;;;;5033098;28;20417;-81
2021/12/05 16:07:24;;;;;;;74.73;36.53;;;6.00;99.90;;;;;;5038810;28;20036;-79
2021/12/05 16:09:49;;;;;;;83.30;45.93;;;6.10;99.90;;;;;;5031682;28;20029;-78
2021/12/05 16:12:18;;;;;;;40.93;26.43;;;6.20;99.90;;;;;;5044914;28;20493;-79
2021/12/05 16:14:52;;;;;;;19.57;14.30;;;6.30;99.90;;;;;;5032398;28;20029;-79
2021/12/05 16:17:27;;;;;;;17.17;12.77;;;6.20;99.90;;;;;;5039165;28;20033;-78
2021/12/05 16:20:16;;;;;;;16.77;11.30;;;6.20;99.90;;;;;;5056084;28;20057;-78
2021/12/05 16:23:04;;;;;;;14.27;8.40;;;6.10;99.90;;;;;;5046054;28;20061;-78
2021/12/05 16:25:31;;;;;;;15.97;11.57;;;6.00;99.90;;;;;;5048930;28;20024;-79
2021/12/05 16:28:01;;;;;;;25.80;17.17;;;6.00;99.90;;;;;;5057520;28;20073;-77
2021/12/05 16:30:32;;;;;;;35.70;24.53;;;6.00;99.90;;;;;;5034791;28;20033;-79
2021/12/05 16:32:59;;;;;;;24.63;18.20;;;6.20;99.90;;;;;;5040131;28;20029;-78
2021/12/05 16:35:38;;;;;;;19.20;11.90;;;6.40;99.90;;;;;;5049707;28;20244;-77
2021/12/05 16:38:41;;;;;;;13.67;10.57;;;6.40;99.90;;;;;;5049125;28;20034;-78
2021/12/05 16:41:20;;;;;;;12.32;9.73;;;6.20;99.90;;;;;;5015637;28;20041;-84
2021/12/05 16:43:57;;;;;;;11.33;9.10;;;6.10;99.90;;;;;;5040058;28;20037;-82
2021/12/05 16:46:33;;;;;;;12.00;8.73;;;6.10;99.90;;;;;;5040634;28;20522;-78
2021/12/05 16:49:03;;;;;;;8.83;7.17;;;6.00;99.90;;;;;;5074544;28;20492;-78
2021/12/05 16:51:37;;;;;;;12.50;8.23;;;5.90;99.90;;;;;;5049980;28;20270;-79
2021/12/05 16:54:24;;;;;;;12.70;8.77;;;5.90;99.90;;;;;;5039210;28;20492;-78
2021/12/05 16:56:58;;;;;;;12.03;7.97;;;5.90;99.90;;;;;;5039901;28;20025;-79
2021/12/05 16:59:25;;;;;;;16.93;12.87;;;5.80;99.90;;;;;;5045514;28;20029;-77
2021/12/05 17:02:09;;;;;;;20.93;14.87;;;5.80;99.90;;;;;;5048388;28;20028;-79
2021/12/05 17:05:00;;;;;;;14.67;11.90;;;5.80;99.90;;;;;;5042602;28;20116;-77
2021/12/05 17:07:48;;;;;;;24.60;14.30;;;5.80;99.90;;;;;;5045934;28;20075;-79
2021/12/05 17:10:25;;;;;;;53.33;24.60;;;5.80;99.90;;;;;;5041830;28;20026;-77
2021/12/05 17:13:04;;;;;;;67.63;29.33;;;5.80;99.90;;;;;;5035140;28;20022;-78
2021/12/05 17:15:31;;;;;;;53.37;26.63;;;5.90;99.90;;;;;;5046793;28;20151;-77
2021/12/05 17:18:03;;;;;;;60.07;32.07;;;6.00;99.90;;;;;;5053118;28;20052;-78
2021/12/05 17:20:42;;;;;;;101.60;50.25;;;6.10;99.90;;;;;;5059953;28;20114;-79
2021/12/05 17:23:12;;;;;;;94.47;48.00;;;6.20;99.90;;;;;;5049382;28;20112;-78
2021/12/05 17:25:45;;;;;;;68.67;35.97;;;6.30;99.90;;;;;;5051957;28;20435;-78
2021/12/05 17:28:15;;;;;;;33.43;20.43;;;6.30;99.90;;;;;;5047426;28;20020;-82
2021/12/05 17:31:02;;;;;;;20.57;14.63;;;6.40;99.90;;;;;;5053017;28;20034;-78
2021/12/05 17:33:39;;;;;;;23.00;16.47;;;6.30;99.90;;;;;;5043548;28;20024;-81
2021/12/05 17:36:17;;;;;;;22.27;16.00;;;6.40;99.90;;;;;;5045915;28;20385;-78
2021/12/05 17:38:43;;;;;;;20.57;14.77;;;6.40;99.90;;;;;;5033946;28;20064;-78
2021/12/05 17:41:09;;;;;;;20.97;14.40;;;6.50;99.90;;;;;;5038133;28;20044;-80
2021/12/05 17:43:35;;;;;;;19.70;14.90;;;6.50;99.90;;;;;;5047749;28;20033;-79
2021/12/05 17:46:00;;;;;;;24.20;17.53;;;6.50;99.90;;;;;;5031867;28;20040;-79
2021/12/05 17:48:28;;;;;;;24.33;18.27;;;6.60;99.90;;;;;;5032304;28;20088;-79
2021/12/05 17:50:55;;;;;;;28.53;20.63;;;6.60;99.90;;;;;;5039513;28;20383;-79
2021/12/05 17:53:27;;;;;;;31.73;22.57;;;6.60;99.90;;;;;;5033736;28;20512;-78
2021/12/05 17:55:59;;;;;;;28.35;20.42;;;6.60;99.90;;;;;;5037576;28;20029;-78
2021/12/05 18:04:06;;;;;;;34.37;24.23;;;6.80;99.90;;;;;;5035862;28;20049;-79
2021/12/05 18:06:32;;;;;;;32.40;22.40;;;6.90;99.90;;;;;;5030302;28;20037;-78
2021/12/05 18:08:58;;;;;;;34.10;24.37;;;7.00;99.90;;;;;;5060384;28;20052;-76
2021/12/05 18:11:25;;;;;;;36.17;24.73;;;6.90;99.90;;;;;;5060574;28;20029;-78
2021/12/05 18:13:55;;;;;;;38.23;24.93;;;6.90;99.90;;;;;;5042342;28;20033;-77
2021/12/05 18:16:25;;;;;;;27.70;19.40;;;6.90;99.90;;;;;;5057658;28;20025;-78
2021/12/05 18:18:57;;;;;;;27.93;19.67;;;6.90;99.90;;;;;;5055862;28;20123;-79
2021/12/05 18:21:25;;;;;;;26.65;19.45;;;6.90;99.90;;;;;;5054507;28;20045;-78
2021/12/05 18:23:53;;;;;;;20.03;14.43;;;7.00;99.90;;;;;;5046243;28;20080;-77
2021/12/05 18:26:19;;;;;;;16.40;12.63;;;6.90;99.80;;;;;;5033402;28;20024;-82
2021/12/05 18:28:49;;;;;;;20.97;13.50;;;6.90;99.60;;;;;;5040409;28;20075;-83
2021/12/05 18:31:19;;;;;;;18.97;13.17;;;6.80;99.50;;;;;;5034850;28;20028;-78
2021/12/05 18:33:49;;;;;;;27.70;18.43;;;6.80;99.30;;;;;;5040287;28;20116;-77
2021/12/05 18:36:15;;;;;;;22.23;14.80;;;6.60;99.10;;;;;;5049834;28;20024;-76
2021/12/05 18:38:41;;;;;;;20.07;15.07;;;6.60;99.40;;;;;;5050304;28;20037;-77
2021/12/05 18:41:10;;;;;;;28.03;20.17;;;6.60;99.40;;;;;;5032602;28;20067;-79
2021/12/05 18:43:41;;;;;;;24.80;18.63;;;6.60;99.70;;;;;;5048203;28;20028;-79
2021/12/05 18:46:08;;;;;;;18.00;13.20;;;6.80;99.90;;;;;;5048934;28;20191;-77
2021/12/05 18:48:34;;;;;;;16.63;12.27;;;6.80;99.80;;;;;;5051895;28;20024;-80
2021/12/05 18:51:01;;;;;;;20.40;15.83;;;6.60;99.50;;;;;;5015843;28;20086;-79
2021/12/05 18:53:27;;;;;;;24.77;18.57;;;6.60;99.70;;;;;;5034008;28;20056;-77
2021/12/05 18:55:54;;;;;;;24.37;16.87;;;6.60;99.90;;;;;;5038363;28;20063;-78
2021/12/05 18:58:23;;;;;;;25.60;19.43;;;6.70;99.90;;;;;;5031749;28;20136;-77